sensor_id;sensor_type;location;lat;lon;timestamp;pressure;altitude;pressure_sealevel;temperature;humidity
70103;BME280;57470;50.034;15.256;2022-07-29T00:00:56;99452.00;;;19.64;53.00
70103;BME280;57470;50.034;15.256;2022-07-29T00:03:22;99455.13;;;19.52;53.41
70103;BME280;57470;50.034;15.256;2022-07-29T00:05:47;99449.06;;;19.50;53.84
70103;BME280;57470;50.034;15.256;2022-07-29T00:08:13;99453.91;;;19.46;53.71
70103;BME280;57470;50.034;15.256;2022-07-29T00:10:38;99450.69;;;19.42;54.29
70103;BME280;57470;50.034;15.256;2022-07-29T00:13:03;99458.34;;;19.21;54.86
70103;BME280;57470;50.034;15.256;2022-07-29T00:15:29;99453.75;;;19.14;55.20
70103;BME280;57470;50.034;15.256;2022-07-29T00:17:54;99446.88;;;19.19;55.11
70103;BME280;57470;50.034;15.256;2022-07-29T00:20:20;99449.06;;;19.24;54.84
70103;BME280;57470;50.034;15.256;2022-07-29T00:22:45;99444.28;;;19.09;55.53
70103;BME280;57470;50.034;15.256;2022-07-29T00:25:12;99442.28;;;19.11;55.25
70103;BME280;57470;50.034;15.256;2022-07-29T00:27:38;99432.56;;;18.93;55.20
70103;BME280;57470;50.034;15.256;2022-07-29T00:30:05;99434.66;;;19.07;55.04
70103;BME280;57470;50.034;15.256;2022-07-29T00:32:31;99429.91;;;19.01;55.44
70103;BME280;57470;50.034;15.256;2022-07-29T00:34:56;99433.31;;;19.03;55.71
70103;BME280;57470;50.034;15.256;2022-07-29T00:37:41;99440.59;;;18.85;56.16
70103;BME280;57470;50.034;15.256;2022-07-29T00:40:07;99441.09;;;18.62;57.04
70103;BME280;57470;50.034;15.256;2022-07-29T00:42:46;99435.72;;;18.62;57.01
70103;BME280;57470;50.034;15.256;2022-07-29T00:45:12;99438.47;;;18.53;57.60
70103;BME280;57470;50.034;15.256;2022-07-29T00:47:38;99423.34;;;18.34;57.47
70103;BME280;57470;50.034;15.256;2022-07-29T00:50:05;99434.41;;;18.49;57.37
70103;BME280;57470;50.034;15.256;2022-07-29T00:52:31;99434.34;;;18.41;57.68
70103;BME280;57470;50.034;15.256;2022-07-29T00:54:57;99425.34;;;18.32;58.03
70103;BME280;57470;50.034;15.256;2022-07-29T00:57:23;99419.50;;;17.83;58.78
70103;BME280;57470;50.034;15.256;2022-07-29T00:59:48;99411.34;;;17.93;58.31
70103;BME280;57470;50.034;15.256;2022-07-29T01:02:14;99405.91;;;18.03;57.86
70103;BME280;57470;50.034;15.256;2022-07-29T01:04:39;99411.91;;;17.96;58.19
70103;BME280;57470;50.034;15.256;2022-07-29T01:07:05;99415.75;;;17.94;58.30
70103;BME280;57470;50.034;15.256;2022-07-29T01:09:32;99401.50;;;17.84;58.04
70103;BME280;57470;50.034;15.256;2022-07-29T01:11:59;99399.97;;;17.54;58.89
70103;BME280;57470;50.034;15.256;2022-07-29T01:14:25;99391.16;;;17.71;58.43
70103;BME280;57470;50.034;15.256;2022-07-29T01:16:54;99391.59;;;17.39;59.42
70103;BME280;57470;50.034;15.256;2022-07-29T01:19:51;99394.22;;;17.49;59.02
70103;BME280;57470;50.034;15.256;2022-07-29T01:30:32;99386.75;;;17.70;58.89
70103;BME280;57470;50.034;15.256;2022-07-29T01:33:03;99383.53;;;17.57;59.83
70103;BME280;57470;50.034;15.256;2022-07-29T01:35:38;99385.78;;;17.44;60.78
70103;BME280;57470;50.034;15.256;2022-07-29T01:38:20;99377.59;;;17.36;61.82
70103;BME280;57470;50.034;15.256;2022-07-29T01:41:15;99385.06;;;17.42;61.72
70103;BME280;57470;50.034;15.256;2022-07-29T01:43:54;99380.41;;;17.44;61.78
70103;BME280;57470;50.034;15.256;2022-07-29T01:46:33;99375.16;;;17.42;61.31
70103;BME280;57470;50.034;15.256;2022-07-29T01:49:10;99371.78;;;17.40;61.30
70103;BME280;57470;50.034;15.256;2022-07-29T01:52:05;99372.25;;;17.36;60.79
70103;BME280;57470;50.034;15.256;2022-07-29T01:54:58;99362.06;;;17.30;60.73
70103;BME280;57470;50.034;15.256;2022-07-29T01:57:29;99363.66;;;17.22;60.77
70103;BME280;57470;50.034;15.256;2022-07-29T01:59:58;99369.41;;;17.27;60.26
70103;BME280;57470;50.034;15.256;2022-07-29T02:02:26;99365.75;;;17.29;60.55
70103;BME280;57470;50.034;15.256;2022-07-29T02:04:53;99374.50;;;17.31;60.78
70103;BME280;57470;50.034;15.256;2022-07-29T02:07:21;99364.38;;;17.24;60.63
70103;BME280;57470;50.034;15.256;2022-07-29T02:09:49;99368.28;;;17.03;61.37
70103;BME280;57470;50.034;15.256;2022-07-29T02:12:17;99366.69;;;17.10;61.26
70103;BME280;57470;50.034;15.256;2022-07-29T02:14:53;99372.38;;;17.07;61.13
70103;BME280;57470;50.034;15.256;2022-07-29T02:17:36;99365.09;;;16.90;61.18
70103;BME280;57470;50.034;15.256;2022-07-29T02:20:04;99365.97;;;16.90;61.80
70103;BME280;57470;50.034;15.256;2022-07-29T02:22:34;99369.31;;;16.92;60.87
70103;BME280;57470;50.034;15.256;2022-07-29T02:25:00;99359.47;;;16.73;61.88
70103;BME280;57470;50.034;15.256;2022-07-29T02:27:28;99366.88;;;16.71;62.10
70103;BME280;57470;50.034;15.256;2022-07-29T02:29:55;99361.00;;;16.85;61.51
70103;BME280;57470;50.034;15.256;2022-07-29T02:32:24;99366.56;;;16.74;62.08
70103;BME280;57470;50.034;15.256;2022-07-29T02:34:51;99356.69;;;16.65;62.15
70103;BME280;57470;50.034;15.256;2022-07-29T02:37:17;99358.97;;;16.50;62.84
70103;BME280;57470;50.034;15.256;2022-07-29T02:39:44;99366.88;;;16.52;62.54
70103;BME280;57470;50.034;15.256;2022-07-29T02:42:16;99368.59;;;16.63;62.12
70103;BME280;57470;50.034;15.256;2022-07-29T02:44:43;99368.72;;;16.51;62.26
70103;BME280;57470;50.034;15.256;2022-07-29T02:47:22;99368.00;;;16.69;62.18
70103;BME280;57470;50.034;15.256;2022-07-29T02:49:57;99379.59;;;16.69;62.00
70103;BME280;57470;50.034;15.256;2022-07-29T02:52:29;99368.28;;;16.46;62.58
70103;BME280;57470;50.034;15.256;2022-07-29T02:55:00;99375.19;;;16.59;61.88
70103;BME280;57470;50.034;15.256;2022-07-29T02:57:33;99383.25;;;16.59;61.92
70103;BME280;57470;50.034;15.256;2022-07-29T03:00:05;99379.03;;;16.46;62.06
70103;BME280;57470;50.034;15.256;2022-07-29T03:02:40;99376.66;;;16.63;61.75
70103;BME280;57470;50.034;15.256;2022-07-29T03:05:09;99371.28;;;16.43;63.17
70103;BME280;57470;50.034;15.256;2022-07-29T03:07:36;99368.28;;;16.56;62.43
70103;BME280;57470;50.034;15.256;2022-07-29T03:10:03;99373.13;;;16.43;62.81
70103;BME280;57470;50.034;15.256;2022-07-29T03:12:30;99377.88;;;16.59;62.31
70103;BME280;57470;50.034;15.256;2022-07-29T03:14:57;99377.19;;;16.57;62.33
70103;BME280;57470;50.034;15.256;2022-07-29T03:17:24;99376.47;;;16.64;62.00
70103;BME280;57470;50.034;15.256;2022-07-29T03:19:50;99377.47;;;16.73;62.27
70103;BME280;57470;50.034;15.256;2022-07-29T03:22:16;99386.03;;;16.86;62.52
70103;BME280;57470;50.034;15.256;2022-07-29T03:24:42;99382.22;;;16.88;63.12
70103;BME280;57470;50.034;15.256;2022-07-29T03:27:07;99381.66;;;16.85;63.32
70103;BME280;57470;50.034;15.256;2022-07-29T03:29:33;99370.91;;;16.85;63.02
70103;BME280;57470;50.034;15.256;2022-07-29T03:31:58;99371.72;;;16.95;62.50
70103;BME280;57470;50.034;15.256;2022-07-29T03:34:23;99361.22;;;17.02;61.69
70103;BME280;57470;50.034;15.256;2022-07-29T03:36:49;99361.78;;;17.05;62.26
70103;BME280;57470;50.034;15.256;2022-07-29T03:39:17;99352.41;;;17.09;61.71
70103;BME280;57470;50.034;15.256;2022-07-29T03:41:47;99356.50;;;17.13;61.02
70103;BME280;57470;50.034;15.256;2022-07-29T03:44:15;99356.97;;;17.09;62.25
70103;BME280;57470;50.034;15.256;2022-07-29T03:46:43;99355.03;;;17.19;61.41
70103;BME280;57470;50.034;15.256;2022-07-29T03:49:10;99362.66;;;17.23;61.67
70103;BME280;57470;50.034;15.256;2022-07-29T03:51:38;99360.38;;;17.29;61.96
70103;BME280;57470;50.034;15.256;2022-07-29T03:54:04;99375.34;;;17.31;61.67
70103;BME280;57470;50.034;15.256;2022-07-29T03:56:32;99378.28;;;17.38;61.42
70103;BME280;57470;50.034;15.256;2022-07-29T03:59:01;99379.59;;;17.34;61.50
70103;BME280;57470;50.034;15.256;2022-07-29T04:01:28;99371.16;;;17.19;62.49
70103;BME280;57470;50.034;15.256;2022-07-29T04:03:53;99367.44;;;17.02;64.00
70103;BME280;57470;50.034;15.256;2022-07-29T04:06:19;99371.97;;;17.29;63.21
70103;BME280;57470;50.034;15.256;2022-07-29T04:08:44;99370.53;;;17.35;62.71
70103;BME280;57470;50.034;15.256;2022-07-29T04:11:10;99372.31;;;17.44;62.45
70103;BME280;57470;50.034;15.256;2022-07-29T04:13:35;99381.16;;;17.54;62.22
70103;BME280;57470;50.034;15.256;2022-07-29T04:16:01;99373.69;;;17.48;62.21
70103;BME280;57470;50.034;15.256;2022-07-29T04:18:26;99375.41;;;17.49;63.05
70103;BME280;57470;50.034;15.256;2022-07-29T04:20:52;99368.53;;;17.54;62.59
70103;BME280;57470;50.034;15.256;2022-07-29T04:23:18;99368.41;;;17.56;62.21
70103;BME280;57470;50.034;15.256;2022-07-29T04:25:43;99372.84;;;17.47;62.53
70103;BME280;57470;50.034;15.256;2022-07-29T04:28:09;99368.22;;;17.67;61.77
70103;BME280;57470;50.034;15.256;2022-07-29T04:30:36;99376.88;;;17.61;61.99
70103;BME280;57470;50.034;15.256;2022-07-29T04:33:03;99366.56;;;17.56;63.38
70103;BME280;57470;50.034;15.256;2022-07-29T04:35:30;99358.31;;;17.68;63.40
70103;BME280;57470;50.034;15.256;2022-07-29T04:37:55;99364.91;;;17.73;62.79
70103;BME280;57470;50.034;15.256;2022-07-29T04:40:21;99365.91;;;17.72;61.68
70103;BME280;57470;50.034;15.256;2022-07-29T04:42:46;99370.69;;;17.96;61.01
70103;BME280;57470;50.034;15.256;2022-07-29T04:45:12;99368.59;;;17.72;61.52
70103;BME280;57470;50.034;15.256;2022-07-29T04:47:37;99369.84;;;17.95;60.17
70103;BME280;57470;50.034;15.256;2022-07-29T04:50:03;99369.84;;;18.13;59.54
70103;BME280;57470;50.034;15.256;2022-07-29T04:52:30;99370.53;;;18.15;60.19
70103;BME280;57470;50.034;15.256;2022-07-29T04:54:55;99380.53;;;18.23;59.91
70103;BME280;57470;50.034;15.256;2022-07-29T04:57:21;99379.28;;;17.64;61.90
70103;BME280;57470;50.034;15.256;2022-07-29T04:59:46;99374.69;;;17.74;61.98
70103;BME280;57470;50.034;15.256;2022-07-29T05:02:11;99363.69;;;17.68;62.04
70103;BME280;57470;50.034;15.256;2022-07-29T05:04:37;99377.00;;;17.69;62.25
70103;BME280;57470;50.034;15.256;2022-07-29T05:07:02;99366.59;;;18.10;60.89
70103;BME280;57470;50.034;15.256;2022-07-29T05:09:28;99372.13;;;18.08;60.81
70103;BME280;57470;50.034;15.256;2022-07-29T05:11:53;99363.16;;;18.43;59.88
70103;BME280;57470;50.034;15.256;2022-07-29T05:14:18;99368.63;;;18.51;59.59
70103;BME280;57470;50.034;15.256;2022-07-29T05:16:44;99380.94;;;18.36;60.13
70103;BME280;57470;50.034;15.256;2022-07-29T05:19:09;99368.91;;;18.05;61.01
70103;BME280;57470;50.034;15.256;2022-07-29T05:21:34;99371.75;;;18.21;60.76
70103;BME280;57470;50.034;15.256;2022-07-29T05:24:01;99365.88;;;18.25;60.27
70103;BME280;57470;50.034;15.256;2022-07-29T05:26:26;99371.66;;;18.56;59.92
70103;BME280;57470;50.034;15.256;2022-07-29T05:28:52;99362.34;;;18.68;59.50
70103;BME280;57470;50.034;15.256;2022-07-29T05:31:18;99358.88;;;18.76;59.20
70103;BME280;57470;50.034;15.256;2022-07-29T05:33:44;99367.53;;;18.88;58.69
70103;BME280;57470;50.034;15.256;2022-07-29T05:36:09;99359.63;;;18.94;58.24
70103;BME280;57470;50.034;15.256;2022-07-29T05:38:35;99373.66;;;19.06;57.81
70103;BME280;57470;50.034;15.256;2022-07-29T05:41:01;99374.97;;;19.36;57.76
70103;BME280;57470;50.034;15.256;2022-07-29T05:43:27;99383.59;;;19.39;57.77
70103;BME280;57470;50.034;15.256;2022-07-29T05:45:53;99384.88;;;19.27;57.88
70103;BME280;57470;50.034;15.256;2022-07-29T05:48:18;99378.47;;;19.28;58.39
70103;BME280;57470;50.034;15.256;2022-07-29T05:50:43;99400.63;;;19.40;57.91
70103;BME280;57470;50.034;15.256;2022-07-29T05:53:09;99389.16;;;19.46;57.77
70103;BME280;57470;50.034;15.256;2022-07-29T05:55:34;99384.88;;;19.27;58.05
70103;BME280;57470;50.034;15.256;2022-07-29T05:57:59;99391.75;;;19.47;58.22
70103;BME280;57470;50.034;15.256;2022-07-29T06:00:25;99387.84;;;19.16;59.14
70103;BME280;57470;50.034;15.256;2022-07-29T06:02:50;99389.41;;;19.61;57.48
70103;BME280;57470;50.034;15.256;2022-07-29T06:05:16;99384.94;;;19.43;56.93
70103;BME280;57470;50.034;15.256;2022-07-29T06:07:42;99376.97;;;19.76;56.87
70103;BME280;57470;50.034;15.256;2022-07-29T06:10:07;99373.78;;;19.97;55.29
70103;BME280;57470;50.034;15.256;2022-07-29T06:12:33;99367.56;;;20.20;55.13
70103;BME280;57470;50.034;15.256;2022-07-29T06:14:59;99364.69;;;20.63;52.99
70103;BME280;57470;50.034;15.256;2022-07-29T06:17:24;99355.09;;;21.07;52.05
70103;BME280;57470;50.034;15.256;2022-07-29T06:19:50;99366.28;;;21.43;51.04
70103;BME280;57470;50.034;15.256;2022-07-29T06:22:16;99357.06;;;21.60;49.78
70103;BME280;57470;50.034;15.256;2022-07-29T06:24:42;99354.75;;;21.80;49.78
70103;BME280;57470;50.034;15.256;2022-07-29T06:27:09;99350.28;;;21.87;49.15
70103;BME280;57470;50.034;15.256;2022-07-29T06:29:35;99344.97;;;21.94;47.94
70103;BME280;57470;50.034;15.256;2022-07-29T06:32:00;99345.44;;;22.43;47.78
70103;BME280;57470;50.034;15.256;2022-07-29T06:34:27;99352.84;;;22.64;46.85
70103;BME280;57470;50.034;15.256;2022-07-29T06:36:52;99353.56;;;23.10;47.00
70103;BME280;57470;50.034;15.256;2022-07-29T06:39:18;99356.19;;;23.03;46.50
70103;BME280;57470;50.034;15.256;2022-07-29T06:41:48;99349.28;;;23.15;46.22
70103;BME280;57470;50.034;15.256;2022-07-29T06:44:14;99344.34;;;23.55;46.10
70103;BME280;57470;50.034;15.256;2022-07-29T06:46:40;99356.44;;;23.88;45.09
70103;BME280;57470;50.034;15.256;2022-07-29T06:49:06;99350.19;;;23.23;46.76
70103;BME280;57470;50.034;15.256;2022-07-29T06:51:32;99345.50;;;23.31;46.94
70103;BME280;57470;50.034;15.256;2022-07-29T06:53:57;99348.81;;;23.63;45.65
70103;BME280;57470;50.034;15.256;2022-07-29T06:56:23;99347.56;;;23.80;45.23
70103;BME280;57470;50.034;15.256;2022-07-29T06:58:49;99350.56;;;23.49;46.46
70103;BME280;57470;50.034;15.256;2022-07-29T07:01:15;99348.22;;;24.03;46.13
70103;BME280;57470;50.034;15.256;2022-07-29T07:03:40;99346.03;;;23.41;46.74
70103;BME280;57470;50.034;15.256;2022-07-29T07:06:07;99347.56;;;24.01;45.76
70103;BME280;57470;50.034;15.256;2022-07-29T07:08:32;99345.09;;;23.85;47.12
70103;BME280;57470;50.034;15.256;2022-07-29T07:10:57;99361.28;;;24.36;45.73
70103;BME280;57470;50.034;15.256;2022-07-29T07:13:23;99359.91;;;23.82;47.02
70103;BME280;57470;50.034;15.256;2022-07-29T07:15:49;99356.84;;;24.28;46.14
70103;BME280;57470;50.034;15.256;2022-07-29T07:18:16;99352.38;;;23.63;47.65
70103;BME280;57470;50.034;15.256;2022-07-29T07:20:41;99356.09;;;23.98;47.08
70103;BME280;57470;50.034;15.256;2022-07-29T07:23:07;99351.44;;;24.13;46.64
70103;BME280;57470;50.034;15.256;2022-07-29T07:25:32;99359.72;;;23.84;48.17
70103;BME280;57470;50.034;15.256;2022-07-29T07:27:58;99359.41;;;24.36;46.56
70103;BME280;57470;50.034;15.256;2022-07-29T07:30:24;99354.16;;;24.13;47.35
70103;BME280;57470;50.034;15.256;2022-07-29T07:32:49;99358.63;;;24.00;47.92
70103;BME280;57470;50.034;15.256;2022-07-29T07:35:15;99347.19;;;24.25;47.08
70103;BME280;57470;50.034;15.256;2022-07-29T07:37:40;99355.28;;;23.98;48.07
70103;BME280;57470;50.034;15.256;2022-07-29T07:40:07;99358.56;;;23.93;48.41
70103;BME280;57470;50.034;15.256;2022-07-29T07:42:33;99364.09;;;24.21;47.65
70103;BME280;57470;50.034;15.256;2022-07-29T07:44:59;99356.94;;;23.99;48.83
70103;BME280;57470;50.034;15.256;2022-07-29T07:47:24;99353.44;;;23.83;48.70
70103;BME280;57470;50.034;15.256;2022-07-29T07:49:50;99367.06;;;24.26;48.32
70103;BME280;57470;50.034;15.256;2022-07-29T07:52:17;99359.66;;;23.77;50.25
70103;BME280;57470;50.034;15.256;2022-07-29T07:54:43;99369.06;;;23.96;49.34
70103;BME280;57470;50.034;15.256;2022-07-29T07:59:35;99366.34;;;24.39;48.91
70103;BME280;57470;50.034;15.256;2022-07-29T08:02:01;99362.06;;;24.29;49.18
70103;BME280;57470;50.034;15.256;2022-07-29T08:04:26;99357.81;;;24.42;48.92
70103;BME280;57470;50.034;15.256;2022-07-29T08:06:52;99355.50;;;24.94;47.77
70103;BME280;57470;50.034;15.256;2022-07-29T08:09:20;99358.50;;;23.86;50.61
70103;BME280;57470;50.034;15.256;2022-07-29T08:11:46;99351.25;;;24.36;49.29
70103;BME280;57470;50.034;15.256;2022-07-29T08:14:11;99355.88;;;24.91;48.21
70103;BME280;57470;50.034;15.256;2022-07-29T08:16:37;99352.25;;;24.28;50.38
70103;BME280;57470;50.034;15.256;2022-07-29T08:19:02;99358.09;;;24.53;49.12
70103;BME280;57470;50.034;15.256;2022-07-29T08:21:27;99362.28;;;24.84;48.89
70103;BME280;57470;50.034;15.256;2022-07-29T08:23:53;99345.78;;;24.57;49.54
70103;BME280;57470;50.034;15.256;2022-07-29T08:26:39;99350.97;;;24.52;49.15
70103;BME280;57470;50.034;15.256;2022-07-29T08:29:04;99347.00;;;25.11;47.23
70103;BME280;57470;50.034;15.256;2022-07-29T08:31:29;99354.78;;;25.14;47.49
70103;BME280;57470;50.034;15.256;2022-07-29T08:33:55;99354.28;;;24.76;48.99
70103;BME280;57470;50.034;15.256;2022-07-29T08:36:21;99352.31;;;24.63;50.04
70103;BME280;57470;50.034;15.256;2022-07-29T08:38:46;99357.59;;;24.99;47.70
70103;BME280;57470;50.034;15.256;2022-07-29T08:41:13;99362.13;;;25.20;47.41
70103;BME280;57470;50.034;15.256;2022-07-29T08:43:39;99363.13;;;25.12;48.25
70103;BME280;57470;50.034;15.256;2022-07-29T08:46:06;99364.16;;;25.11;47.84
70103;BME280;57470;50.034;15.256;2022-07-29T08:48:32;99369.69;;;24.19;50.57
70103;BME280;57470;50.034;15.256;2022-07-29T08:50:57;99364.75;;;24.79;48.80
70103;BME280;57470;50.034;15.256;2022-07-29T08:53:25;99373.72;;;25.00;48.55
70103;BME280;57470;50.034;15.256;2022-07-29T08:55:52;99372.78;;;24.87;48.44
70103;BME280;57470;50.034;15.256;2022-07-29T08:58:18;99367.41;;;24.65;49.83
70103;BME280;57470;50.034;15.256;2022-07-29T09:00:54;99360.41;;;24.56;49.89
70103;BME280;57470;50.034;15.256;2022-07-29T09:03:23;99367.59;;;24.92;49.63
70103;BME280;57470;50.034;15.256;2022-07-29T09:05:49;99369.47;;;24.63;49.70
70103;BME280;57470;50.034;15.256;2022-07-29T09:08:16;99369.59;;;25.11;49.38
70103;BME280;57470;50.034;15.256;2022-07-29T09:10:43;99370.09;;;25.21;48.90
70103;BME280;57470;50.034;15.256;2022-07-29T09:13:09;99372.03;;;24.44;50.75
70103;BME280;57470;50.034;15.256;2022-07-29T09:15:34;99370.69;;;25.23;49.77
70103;BME280;57470;50.034;15.256;2022-07-29T09:18:00;99372.19;;;24.63;51.19
70103;BME280;57470;50.034;15.256;2022-07-29T09:20:26;99377.66;;;24.70;51.13
70103;BME280;57470;50.034;15.256;2022-07-29T09:23:12;99387.22;;;24.87;51.12
70103;BME280;57470;50.034;15.256;2022-07-29T09:25:40;99371.47;;;25.04;49.97
70103;BME280;57470;50.034;15.256;2022-07-29T09:28:10;99366.44;;;24.80;50.99
70103;BME280;57470;50.034;15.256;2022-07-29T09:30:49;99372.38;;;25.24;49.76
70103;BME280;57470;50.034;15.256;2022-07-29T09:33:15;99373.19;;;25.18;50.82
70103;BME280;57470;50.034;15.256;2022-07-29T09:35:40;99378.28;;;24.65;51.67
70103;BME280;57470;50.034;15.256;2022-07-29T09:38:13;99371.63;;;24.96;51.49
70103;BME280;57470;50.034;15.256;2022-07-29T09:40:39;99374.38;;;25.02;51.62
70103;BME280;57470;50.034;15.256;2022-07-29T09:43:12;99369.66;;;24.90;51.80
70103;BME280;57470;50.034;15.256;2022-07-29T09:45:38;99367.47;;;25.41;50.19
70103;BME280;57470;50.034;15.256;2022-07-29T09:48:14;99360.72;;;25.37;50.62
70103;BME280;57470;50.034;15.256;2022-07-29T09:50:41;99356.00;;;24.83;52.07
70103;BME280;57470;50.034;15.256;2022-07-29T09:53:07;99353.63;;;25.42;50.84
70103;BME280;57470;50.034;15.256;2022-07-29T09:55:46;99347.69;;;25.67;50.22
70103;BME280;57470;50.034;15.256;2022-07-29T09:58:19;99359.78;;;25.58;50.19
70103;BME280;57470;50.034;15.256;2022-07-29T10:00:47;99359.25;;;25.82;49.60
70103;BME280;57470;50.034;15.256;2022-07-29T10:03:14;99354.00;;;25.87;49.91
70103;BME280;57470;50.034;15.256;2022-07-29T10:05:41;99341.66;;;25.30;51.58
70103;BME280;57470;50.034;15.256;2022-07-29T10:08:07;99341.41;;;25.73;49.55
70103;BME280;57470;50.034;15.256;2022-07-29T10:10:36;99351.31;;;26.13;49.37
70103;BME280;57470;50.034;15.256;2022-07-29T10:13:13;99355.31;;;26.11;49.53
70103;BME280;57470;50.034;15.256;2022-07-29T10:15:41;99351.75;;;26.10;49.54
70103;BME280;57470;50.034;15.256;2022-07-29T10:18:11;99345.72;;;26.35;47.88
70103;BME280;57470;50.034;15.256;2022-07-29T10:20:37;99346.56;;;26.29;47.60
70103;BME280;57470;50.034;15.256;2022-07-29T10:23:03;99346.34;;;26.37;47.28
70103;BME280;57470;50.034;15.256;2022-07-29T10:25:29;99339.19;;;26.69;47.14
70103;BME280;57470;50.034;15.256;2022-07-29T10:27:55;99334.53;;;25.90;49.10
70103;BME280;57470;50.034;15.256;2022-07-29T10:30:22;99347.56;;;26.14;48.67
70103;BME280;57470;50.034;15.256;2022-07-29T10:38:43;99340.03;;;26.43;47.88
70103;BME280;57470;50.034;15.256;2022-07-29T10:44:04;99338.38;;;26.35;48.50
70103;BME280;57470;50.034;15.256;2022-07-29T10:46:38;99335.84;;;26.53;47.97
70103;BME280;57470;50.034;15.256;2022-07-29T10:59:39;99333.28;;;25.99;49.05
70103;BME280;57470;50.034;15.256;2022-07-29T11:05:04;99334.81;;;26.35;47.56
70103;BME280;57470;50.034;15.256;2022-07-29T11:07:31;99335.81;;;25.94;48.76
70103;BME280;57470;50.034;15.256;2022-07-29T11:15:03;99341.50;;;26.72;46.46
70103;BME280;57470;50.034;15.256;2022-07-29T11:20:31;99325.91;;;26.85;46.15
70103;BME280;57470;50.034;15.256;2022-07-29T11:22:57;99332.63;;;27.03;46.05
70103;BME280;57470;50.034;15.256;2022-07-29T11:25:23;99326.16;;;26.77;45.60
70103;BME280;57470;50.034;15.256;2022-07-29T11:27:48;99331.59;;;26.97;45.86
70103;BME280;57470;50.034;15.256;2022-07-29T11:30:14;99329.69;;;27.11;45.31
70103;BME280;57470;50.034;15.256;2022-07-29T11:32:43;99329.75;;;27.42;44.56
70103;BME280;57470;50.034;15.256;2022-07-29T11:35:23;99326.41;;;26.63;45.95
70103;BME280;57470;50.034;15.256;2022-07-29T11:38:26;99326.97;;;26.84;45.82
70103;BME280;57470;50.034;15.256;2022-07-29T11:43:59;99328.25;;;27.02;46.40
70103;BME280;57470;50.034;15.256;2022-07-29T11:49:19;99335.38;;;26.76;49.01
70103;BME280;57470;50.034;15.256;2022-07-29T11:51:50;99330.69;;;27.23;49.03
70103;BME280;57470;50.034;15.256;2022-07-29T11:54:23;99338.00;;;27.29;47.40
70103;BME280;57470;50.034;15.256;2022-07-29T11:56:49;99336.69;;;27.38;47.77
70103;BME280;57470;50.034;15.256;2022-07-29T11:59:15;99341.13;;;27.39;46.02
70103;BME280;57470;50.034;15.256;2022-07-29T12:01:52;99344.59;;;27.73;46.53
70103;BME280;57470;50.034;15.256;2022-07-29T12:04:17;99352.47;;;27.87;46.46
70103;BME280;57470;50.034;15.256;2022-07-29T12:06:43;99345.94;;;27.88;46.62
70103;BME280;57470;50.034;15.256;2022-07-29T12:09:13;99335.75;;;28.02;45.63
70103;BME280;57470;50.034;15.256;2022-07-29T12:11:39;99345.94;;;27.44;45.60
70103;BME280;57470;50.034;15.256;2022-07-29T12:14:04;99338.41;;;27.84;45.58
70103;BME280;57470;50.034;15.256;2022-07-29T12:16:36;99328.97;;;27.80;44.91
70103;BME280;57470;50.034;15.256;2022-07-29T12:19:04;99330.78;;;27.48;45.71
70103;BME280;57470;50.034;15.256;2022-07-29T12:21:50;99331.13;;;28.02;45.62
70103;BME280;57470;50.034;15.256;2022-07-29T12:24:17;99328.25;;;27.53;45.52
70103;BME280;57470;50.034;15.256;2022-07-29T12:27:03;99325.09;;;26.98;48.73
70103;BME280;57470;50.034;15.256;2022-07-29T12:29:29;99322.56;;;27.61;46.64
70103;BME280;57470;50.034;15.256;2022-07-29T12:31:55;99320.41;;;28.01;45.87
70103;BME280;57470;50.034;15.256;2022-07-29T12:34:23;99323.31;;;27.75;46.44
70103;BME280;57470;50.034;15.256;2022-07-29T12:36:49;99313.03;;;28.01;44.08
70103;BME280;57470;50.034;15.256;2022-07-29T12:39:16;99314.16;;;27.94;44.16
70103;BME280;57470;50.034;15.256;2022-07-29T12:41:43;99303.50;;;26.70;47.19
70103;BME280;57470;50.034;15.256;2022-07-29T12:44:09;99306.13;;;27.16;45.83
70103;BME280;57470;50.034;15.256;2022-07-29T12:46:34;99300.19;;;27.33;45.45
70103;BME280;57470;50.034;15.256;2022-07-29T12:49:00;99309.34;;;27.51;44.97
70103;BME280;57470;50.034;15.256;2022-07-29T12:51:37;99308.41;;;28.02;44.31
70103;BME280;57470;50.034;15.256;2022-07-29T12:54:22;99311.06;;;27.84;43.95
70103;BME280;57470;50.034;15.256;2022-07-29T12:56:58;99313.31;;;27.11;46.44
70103;BME280;57470;50.034;15.256;2022-07-29T12:59:24;99317.31;;;27.59;44.08
70103;BME280;57470;50.034;15.256;2022-07-29T13:01:51;99319.19;;;27.97;44.12
70103;BME280;57470;50.034;15.256;2022-07-29T13:04:27;99312.88;;;28.28;42.82
70103;BME280;57470;50.034;15.256;2022-07-29T13:07:03;99303.34;;;28.06;43.43
70103;BME280;57470;50.034;15.256;2022-07-29T13:12:06;99291.09;;;27.83;44.19
70103;BME280;57470;50.034;15.256;2022-07-29T13:14:34;99293.25;;;27.75;43.32
70103;BME280;57470;50.034;15.256;2022-07-29T13:17:10;99293.34;;;27.61;45.09
70103;BME280;57470;50.034;15.256;2022-07-29T13:19:40;99287.34;;;27.78;43.62
70103;BME280;57470;50.034;15.256;2022-07-29T13:22:07;99285.66;;;27.77;43.64
70103;BME280;57470;50.034;15.256;2022-07-29T13:24:34;99284.00;;;28.32;42.30
70103;BME280;57470;50.034;15.256;2022-07-29T13:26:59;99279.50;;;27.88;44.77
70103;BME280;57470;50.034;15.256;2022-07-29T13:29:24;99266.50;;;27.45;44.93
70103;BME280;57470;50.034;15.256;2022-07-29T13:31:51;99275.28;;;27.47;44.58
70103;BME280;57470;50.034;15.256;2022-07-29T13:34:17;99271.09;;;27.83;43.97
70103;BME280;57470;50.034;15.256;2022-07-29T13:36:44;99269.28;;;28.01;44.17
70103;BME280;57470;50.034;15.256;2022-07-29T13:39:10;99271.00;;;27.71;43.18
70103;BME280;57470;50.034;15.256;2022-07-29T13:41:36;99276.66;;;28.01;43.25
70103;BME280;57470;50.034;15.256;2022-07-29T13:44:01;99271.28;;;28.44;42.71